JANUARY 31, 2015

 

METAR SMJP 311000Z 15001KT 3000 BR BKN002 24/23 Q1012 TEMPO 0800 FG=

METAR SMZO 311000Z 00000KT 9999 SCT010 24/23 Q1012 NOSIG=

METAR SMNI 311000Z 09006KT 9999 FEW015 SCT030 25/23 Q1012=

METAR SMST 311000Z 00000KT 9999 FEW010 23/23 Q////=